createdAt,value
2023-06-17T00:00:14.237Z,101201.25
2023-06-17T00:02:42.431Z,101192.72
2023-06-17T00:05:11.569Z,101194.78
2023-06-17T00:07:42.482Z,101194.78
2023-06-17T00:10:11.771Z,101193.19
2023-06-17T00:12:40.238Z,101196.03
2023-06-17T00:15:09.997Z,101205.16
2023-06-17T00:17:38.104Z,101199.00
2023-06-17T00:20:11.345Z,101199.84
2023-06-17T00:22:41.658Z,101196.41
2023-06-17T00:25:11.387Z,101210.97
2023-06-17T00:27:39.890Z,101207.59
2023-06-17T00:30:09.037Z,101207.59
2023-06-17T00:32:37.982Z,101203.41
2023-06-17T00:35:07.207Z,101190.06
2023-06-17T00:37:35.501Z,101198.34
2023-06-17T00:40:09.037Z,101190.31
2023-06-17T00:42:37.576Z,101192.25
2023-06-17T00:45:07.003Z,101193.25
2023-06-17T00:47:35.391Z,101197.91
2023-06-17T00:50:05.088Z,101181.72
2023-06-17T00:52:42.072Z,101182.59
2023-06-17T00:55:13.336Z,101190.88
2023-06-17T00:57:41.829Z,101195.56
2023-06-17T01:00:12.735Z,101178.38
2023-06-17T01:02:42.291Z,101184.56
2023-06-17T01:05:13.715Z,101190.75
2023-06-17T01:07:51.645Z,101182.47
2023-06-17T01:10:26.552Z,101182.16
2023-06-17T01:12:56.253Z,101186.34
2023-06-17T01:15:25.093Z,101176.97
2023-06-17T01:17:55.490Z,101183.16
2023-06-17T01:20:26.916Z,101182.94
2023-06-17T01:22:56.222Z,101180.69
2023-06-17T01:25:30.869Z,101171.31
2023-06-17T01:28:01.978Z,101176.41
2023-06-17T01:30:33.424Z,101177.13
2023-06-17T01:33:03.894Z,101168.84
2023-06-17T01:35:33.903Z,101173.19
2023-06-17T01:38:08.182Z,101170.34
2023-06-17T01:40:40.688Z,101172.31
2023-06-17T01:43:09.978Z,101170.47
2023-06-17T01:45:38.402Z,101176.75
2023-06-17T01:48:06.940Z,101174.03
2023-06-17T01:50:35.127Z,101174.91
2023-06-17T01:53:03.241Z,101172.19
2023-06-17T01:55:31.374Z,101176.63
2023-06-17T01:58:00.991Z,101170.34
2023-06-17T02:00:29.204Z,101177.75
2023-06-17T02:02:57.430Z,101176.41
2023-06-17T02:05:25.660Z,101176.63
2023-06-17T02:07:54.801Z,101174.28
2023-06-17T02:10:23.485Z,101181.81
2023-06-17T02:12:51.689Z,101185.75
2023-06-17T02:15:21.368Z,101194.25
2023-06-17T02:17:49.535Z,101188.94
2023-06-17T02:20:17.736Z,101189.19
2023-06-17T02:22:46.038Z,101186.59
2023-06-17T02:25:14.141Z,101184.88
2023-06-17T02:27:42.275Z,101190.63
2023-06-17T02:30:12.177Z,101192.59
2023-06-17T02:32:41.795Z,101190.75
2023-06-17T02:35:11.581Z,101194.31
2023-06-17T02:37:39.866Z,101190.53
2023-06-17T02:40:10.493Z,101186.81
2023-06-17T02:42:39.100Z,101187.69
2023-06-17T02:45:08.405Z,101183.03
2023-06-17T02:47:36.703Z,101183.13
2023-06-17T02:50:08.288Z,101175.94
2023-06-17T02:52:38.299Z,101184.97
2023-06-17T02:55:07.593Z,101176.72
2023-06-17T02:57:36.811Z,101185.84
2023-06-17T03:00:07.561Z,101182.59
2023-06-17T03:02:35.849Z,101184.69
2023-06-17T03:05:04.509Z,101179.25
2023-06-17T03:07:37.073Z,101178.50
2023-06-17T03:10:05.602Z,101180.56
2023-06-17T03:12:33.676Z,101179.09
2023-06-17T03:15:02.046Z,101179.81
2023-06-17T03:17:30.125Z,101178.84
2023-06-17T03:20:00.418Z,101176.13
2023-06-17T03:22:28.531Z,101172.22
2023-06-17T03:24:58.027Z,101171.22
2023-06-17T03:27:26.244Z,101169.38
2023-06-17T03:29:54.345Z,101162.69
2023-06-17T03:32:22.490Z,101163.34
2023-06-17T03:34:50.635Z,101165.84
2023-06-17T03:37:18.726Z,101168.44
2023-06-17T03:39:46.857Z,101165.59
2023-06-17T03:42:17.217Z,101165.59
2023-06-17T03:44:45.353Z,101171.66
2023-06-17T03:47:13.699Z,101154.34
2023-06-17T03:49:41.835Z,101160.53
2023-06-17T03:52:10.091Z,101161.41
2023-06-17T03:54:38.524Z,101168.56
2023-06-17T03:57:07.358Z,101173.75
2023-06-17T03:59:38.239Z,101165.19
2023-06-17T04:02:06.715Z,101166.94
2023-06-17T04:04:35.979Z,101173.34
2023-06-17T04:07:05.282Z,101160.28
2023-06-17T04:09:33.596Z,101170.06
2023-06-17T04:12:01.847Z,101171.78
2023-06-17T04:14:29.998Z,101175.13
2023-06-17T04:17:00.393Z,101179.34
2023-06-17T04:19:28.712Z,101173.66
2023-06-17T04:21:56.786Z,101173.78
2023-06-17T04:24:24.968Z,101183.28
2023-06-17T04:26:53.999Z,101177.34
2023-06-17T04:29:22.248Z,101180.31
2023-06-17T04:31:51.012Z,101182.38
2023-06-17T04:34:23.704Z,101179.53
2023-06-17T04:36:58.335Z,101184.97
2023-06-17T04:39:27.486Z,101185.75
2023-06-17T04:41:55.629Z,101190.69
2023-06-17T04:44:23.842Z,101190.31
2023-06-17T04:46:51.971Z,101191.31
2023-06-17T04:49:21.872Z,101195.53
2023-06-17T04:51:49.965Z,101200.47
2023-06-17T04:54:19.568Z,101189.88
2023-06-17T04:56:49.675Z,101191.88
2023-06-17T04:59:19.401Z,101187.41
2023-06-17T05:01:47.584Z,101194.09
2023-06-17T05:04:15.822Z,101190.50
2023-06-17T05:06:45.310Z,101190.13
2023-06-17T05:09:13.534Z,101197.81
2023-06-17T05:11:41.925Z,101196.44
2023-06-17T05:14:10.078Z,101184.94
2023-06-17T05:16:38.271Z,101187.41
2023-06-17T05:19:06.425Z,101189.28
2023-06-17T05:21:34.524Z,101187.28
2023-06-17T05:24:04.199Z,101184.09
2023-06-17T05:26:32.385Z,101179.50
2023-06-17T05:29:00.537Z,101185.94
2023-06-17T05:31:28.651Z,101181.97
2023-06-17T05:33:56.784Z,101186.41
2023-06-17T05:36:26.640Z,101182.69
2023-06-17T05:38:54.898Z,101190.81
2023-06-17T05:41:24.396Z,101193.75
2023-06-17T05:43:52.454Z,101192.50
2023-06-17T05:46:20.756Z,101193.47
2023-06-17T05:48:48.904Z,101204.78
2023-06-17T05:51:17.849Z,101201.19
2023-06-17T05:53:47.066Z,101193.88
2023-06-17T05:56:15.340Z,101197.19
2023-06-17T05:58:45.023Z,101204.88
2023-06-17T06:01:13.156Z,101208.66
2023-06-17T06:03:41.294Z,101205.16
2023-06-17T06:06:09.445Z,101212.84
2023-06-17T06:08:37.571Z,101214.91
2023-06-17T06:11:05.896Z,101216.97
2023-06-17T06:13:33.993Z,101221.53
2023-06-17T06:16:04.934Z,101218.13
2023-06-17T06:18:33.115Z,101220.22
2023-06-17T06:21:01.214Z,101218.22
2023-06-17T06:23:30.609Z,101216.84
2023-06-17T06:25:58.744Z,101226.78
2023-06-17T06:28:26.867Z,101222.72
2023-06-17T06:30:54.965Z,101226.22
2023-06-17T06:33:24.676Z,101225.41
2023-06-17T06:35:52.810Z,101222.88
2023-06-17T06:38:20.989Z,101233.38
2023-06-17T06:40:49.176Z,101231.84
2023-06-17T06:43:17.258Z,101234.88
2023-06-17T06:45:45.688Z,101236.09
2023-06-17T06:48:14.611Z,101236.81
2023-06-17T06:50:44.154Z,101226.78
2023-06-17T06:53:12.236Z,101232.13
2023-06-17T06:55:41.072Z,101230.41
2023-06-17T06:58:09.177Z,101234.00
2023-06-17T07:00:37.292Z,101237.88
2023-06-17T07:03:05.484Z,101230.56
2023-06-17T07:05:33.639Z,101234.94
2023-06-17T07:08:03.686Z,101246.31
2023-06-17T07:10:31.815Z,101241.41
2023-06-17T07:12:59.928Z,101246.88
2023-06-17T07:15:28.027Z,101249.88
2023-06-17T07:17:56.178Z,101235.56
2023-06-17T07:20:24.459Z,101237.84
2023-06-17T07:22:52.613Z,101233.94
2023-06-17T07:25:22.155Z,101229.75
2023-06-17T07:27:51.805Z,101235.41
2023-06-17T07:30:20.310Z,101227.41
2023-06-17T07:32:48.653Z,101237.03
2023-06-17T07:35:16.920Z,101231.81
2023-06-17T07:37:45.029Z,101232.38
2023-06-17T07:40:14.850Z,101238.47
2023-06-17T07:42:44.800Z,101243.28
2023-06-17T07:45:13.422Z,101233.47
2023-06-17T07:47:41.750Z,101236.38
2023-06-17T07:50:10.721Z,101231.13
2023-06-17T07:52:39.030Z,101230.53
2023-06-17T07:55:09.588Z,101229.06
2023-06-17T07:57:37.830Z,101226.84
2023-06-17T08:00:11.821Z,101223.59
2023-06-17T08:02:40.041Z,101220.84
2023-06-17T08:05:08.707Z,101221.56
2023-06-17T08:07:37.379Z,101207.41
2023-06-17T08:10:08.850Z,101218.84
2023-06-17T08:12:38.101Z,101212.91
2023-06-17T08:15:09.144Z,101214.09
2023-06-17T08:17:37.535Z,101215.59
2023-06-17T08:20:06.557Z,101215.50
2023-06-17T08:22:34.733Z,101218.63
2023-06-17T08:25:02.861Z,101209.94
2023-06-17T08:27:32.211Z,101211.53
2023-06-17T08:30:00.869Z,101208.78
2023-06-17T08:32:30.456Z,101208.50
2023-06-17T08:34:58.648Z,101207.03
2023-06-17T08:37:26.793Z,101200.66
2023-06-17T08:39:54.910Z,101200.19
2023-06-17T08:42:23.394Z,101201.81
2023-06-17T08:44:53.570Z,101197.28
2023-06-17T08:47:22.676Z,101205.81
2023-06-17T08:49:52.389Z,101207.84
2023-06-17T08:52:20.635Z,101201.25
2023-06-17T08:54:49.739Z,101203.00
2023-06-17T08:57:19.143Z,101201.34
2023-06-17T08:59:47.581Z,101205.94
2023-06-17T09:02:16.851Z,101198.09
2023-06-17T09:04:45.064Z,101198.81
2023-06-17T09:07:14.742Z,101188.97
2023-06-17T09:09:48.553Z,101195.91
2023-06-17T09:12:16.711Z,101196.66
2023-06-17T09:14:46.394Z,101199.28
2023-06-17T09:17:29.666Z,101199.00
2023-06-17T09:19:57.790Z,101199.41
2023-06-17T09:22:28.554Z,101192.31
2023-06-17T09:24:59.841Z,101192.56
2023-06-17T09:27:28.569Z,101192.25
2023-06-17T09:30:10.513Z,101185.75
2023-06-17T09:32:39.714Z,101186.94
2023-06-17T09:35:09.553Z,101191.59
2023-06-17T09:37:42.409Z,101194.78
2023-06-17T09:40:18.962Z,101190.88
2023-06-17T09:42:47.995Z,101185.50
2023-06-17T09:45:20.109Z,101193.66
2023-06-17T09:47:53.492Z,101189.41
2023-06-17T09:50:24.332Z,101193.16
2023-06-17T09:52:57.036Z,101189.72
2023-06-17T09:55:25.779Z,101175.66
2023-06-17T09:57:54.915Z,101187.06
2023-06-17T10:00:25.566Z,101177.78
2023-06-17T10:02:54.534Z,101181.56
2023-06-17T10:05:24.935Z,101177.78
2023-06-17T10:07:55.913Z,101188.72
2023-06-17T10:10:25.303Z,101186.69
2023-06-17T10:12:54.943Z,101184.78
2023-06-17T10:15:23.813Z,101180.91
2023-06-17T10:17:53.096Z,101190.34
2023-06-17T10:20:23.290Z,101180.75
2023-06-17T10:22:55.824Z,101180.94
2023-06-17T10:25:26.357Z,101178.78
2023-06-17T10:27:54.439Z,101177.94
2023-06-17T10:30:25.631Z,101181.81
2023-06-17T10:32:57.525Z,101189.72
2023-06-17T10:35:26.357Z,101184.34
2023-06-17T10:37:54.439Z,101176.66
2023-06-17T10:40:28.199Z,101173.88
2023-06-17T10:42:59.185Z,101180.06
2023-06-17T10:45:30.294Z,101187.34
2023-06-17T10:48:15.973Z,101179.88
2023-06-17T10:50:44.232Z,101184.56
2023-06-17T10:53:16.973Z,101175.19
2023-06-17T10:55:47.529Z,101179.03
2023-06-17T10:58:15.659Z,101173.25
2023-06-17T11:00:43.815Z,101176.66
2023-06-17T11:03:12.100Z,101177.91
2023-06-17T11:05:40.747Z,101169.38
2023-06-17T11:08:12.599Z,101176.66
2023-06-17T11:10:40.746Z,101181.13
2023-06-17T11:13:10.275Z,101174.50
2023-06-17T11:15:38.481Z,101177.91
2023-06-17T11:18:08.025Z,101177.53
2023-06-17T11:20:36.747Z,101175.38
2023-06-17T11:23:05.604Z,101181.59
2023-06-17T11:25:44.407Z,101176.44
2023-06-17T11:28:15.997Z,101173.69
2023-06-17T11:30:44.231Z,101178.78
2023-06-17T11:33:12.462Z,101178.78
2023-06-17T11:35:41.005Z,101177.72
2023-06-17T11:38:09.980Z,101166.81
2023-06-17T11:40:41.865Z,101171.31
2023-06-17T11:43:10.232Z,101166.00
2023-06-17T11:45:39.965Z,101165.34
2023-06-17T11:48:08.236Z,101170.69
2023-06-17T11:50:38.676Z,101165.13
2023-06-17T11:53:06.933Z,101166.38
2023-06-17T11:55:35.889Z,101158.91
2023-06-17T11:58:05.477Z,101165.53
2023-06-17T12:00:36.577Z,101152.72
2023-06-17T12:03:06.681Z,101160.41
2023-06-17T12:05:34.922Z,101154.84
2023-06-17T12:08:03.344Z,101152.72
2023-06-17T12:10:31.527Z,101157.84
2023-06-17T12:13:00.071Z,101153.53
2023-06-17T12:18:11.952Z,101153.28
2023-06-17T12:20:40.784Z,101147.72
2023-06-17T12:23:08.917Z,101143.66
2023-06-17T12:25:37.061Z,101139.41
2023-06-17T12:28:05.234Z,101154.16
2023-06-17T12:30:34.828Z,101152.91
2023-06-17T12:33:03.307Z,101152.00
2023-06-17T12:35:32.854Z,101149.03
2023-06-17T12:38:01.002Z,101155.63
2023-06-17T12:40:29.805Z,101153.28
2023-06-17T12:42:57.916Z,101155.03
2023-06-17T12:45:28.255Z,101157.56
2023-06-17T12:47:57.137Z,101155.63
2023-06-17T12:50:25.744Z,101157.53
2023-06-17T12:52:56.597Z,101143.44
2023-06-17T12:55:24.752Z,101146.88
2023-06-17T12:57:52.886Z,101147.16
2023-06-17T13:00:21.069Z,101152.66
2023-06-17T13:02:49.612Z,101149.22
2023-06-17T13:05:18.048Z,101148.16
2023-06-17T13:07:46.206Z,101153.53
2023-06-17T13:10:16.198Z,101153.91
2023-06-17T13:12:44.366Z,101157.38
2023-06-17T13:15:12.828Z,101148.81
2023-06-17T13:17:42.107Z,101153.72
2023-06-17T13:20:11.145Z,101150.31
2023-06-17T13:22:39.397Z,101147.16
2023-06-17T13:25:08.441Z,101132.59
2023-06-17T13:27:38.005Z,101134.75
2023-06-17T13:30:07.120Z,101134.75
2023-06-17T13:32:35.286Z,101130.47
2023-06-17T13:35:05.177Z,101126.63
2023-06-17T13:37:33.433Z,101132.84
2023-06-17T13:40:01.581Z,101128.72
2023-06-17T13:42:29.749Z,101123.19
2023-06-17T13:45:00.312Z,101123.88
2023-06-17T13:47:28.787Z,101114.63
2023-06-17T13:49:57.370Z,101121.88
2023-06-17T13:52:25.487Z,101124.41
2023-06-17T13:54:53.675Z,101122.72
2023-06-17T13:57:21.816Z,101111.59
2023-06-17T13:59:50.423Z,101114.41
2023-06-17T14:02:20.180Z,101124.22
2023-06-17T14:04:48.359Z,101110.75
2023-06-17T14:07:16.465Z,101109.88
2023-06-17T14:09:44.701Z,101097.19
2023-06-17T14:12:13.205Z,101104.63
2023-06-17T14:14:41.340Z,101106.34
2023-06-17T14:17:09.491Z,101101.44
2023-06-17T14:19:39.304Z,101101.81
2023-06-17T14:22:08.156Z,101092.22
2023-06-17T14:24:38.885Z,101093.72
2023-06-17T14:27:32.768Z,101094.94
2023-06-17T14:30:00.901Z,101086.16
2023-06-17T14:32:29.094Z,101092.00
2023-06-17T14:34:59.964Z,101094.50
2023-06-17T14:37:30.031Z,101091.22
2023-06-17T14:39:58.505Z,101091.38
2023-06-17T14:42:26.761Z,101096.84
2023-06-17T14:44:54.890Z,101093.09
2023-06-17T14:47:23.237Z,101100.00
2023-06-17T14:49:51.571Z,101104.66
2023-06-17T14:52:21.094Z,101096.06
2023-06-17T14:54:49.232Z,101099.44
2023-06-17T14:57:17.438Z,101097.28
2023-06-17T14:59:46.183Z,101103.59
2023-06-17T15:02:43.120Z,101103.34
2023-06-17T15:05:11.385Z,101113.25
2023-06-17T15:07:40.910Z,101109.53
2023-06-17T15:10:09.888Z,101111.56
2023-06-17T15:12:42.854Z,101097.63
2023-06-17T15:15:12.763Z,101095.91
2023-06-17T15:17:42.342Z,101102.91
2023-06-17T15:20:11.582Z,101102.91
2023-06-17T15:22:41.188Z,101107.00
2023-06-17T15:25:10.024Z,101106.72
2023-06-17T15:27:38.158Z,101109.78
2023-06-17T15:30:07.686Z,101098.72
2023-06-17T15:32:35.925Z,101102.34
2023-06-17T15:35:04.157Z,101107.78
2023-06-17T15:37:33.808Z,101106.13
2023-06-17T15:40:05.110Z,101104.13
2023-06-17T15:42:33.237Z,101108.69
2023-06-17T15:45:01.364Z,101109.44
2023-06-17T15:47:29.516Z,101114.13
2023-06-17T15:49:57.680Z,101115.50
2023-06-17T15:52:27.108Z,101119.28
2023-06-17T15:54:56.765Z,101115.94
2023-06-17T15:57:26.366Z,101117.94
2023-06-17T15:59:54.804Z,101115.97
2023-06-17T16:02:22.979Z,101109.31
2023-06-17T16:04:54.736Z,101125.22
2023-06-17T16:07:23.003Z,101133.00
2023-06-17T16:09:53.568Z,101134.25
2023-06-17T16:12:22.672Z,101139.94
2023-06-17T16:14:52.432Z,101135.66
2023-06-17T16:17:21.664Z,101138.63
2023-06-17T16:19:49.878Z,101133.13
2023-06-17T16:22:18.027Z,101132.09
2023-06-17T16:24:46.143Z,101144.88
2023-06-17T16:27:14.385Z,101141.78
2023-06-17T16:29:42.932Z,101148.66
2023-06-17T16:32:12.503Z,101140.91
2023-06-17T16:34:40.821Z,101132.84
2023-06-17T16:37:08.986Z,101135.06
2023-06-17T16:39:37.292Z,101112.50
2023-06-17T16:42:07.470Z,101108.75
2023-06-17T16:44:36.050Z,101111.31
2023-06-17T16:47:04.372Z,101114.91
2023-06-17T16:49:33.836Z,101119.72
2023-06-17T16:52:02.246Z,101119.53
2023-06-17T16:54:30.397Z,101122.97
2023-06-17T16:56:58.540Z,101116.09
2023-06-17T16:59:26.683Z,101128.09
2023-06-17T17:01:56.466Z,101136.13
2023-06-17T17:04:24.672Z,101134.53
2023-06-17T17:06:54.194Z,101135.69
2023-06-17T17:09:22.288Z,101133.41
2023-06-17T17:11:50.381Z,101145.25
2023-06-17T17:14:18.541Z,101145.91
2023-06-17T17:16:46.765Z,101148.28
2023-06-17T17:19:14.954Z,101147.03
2023-06-17T17:21:43.097Z,101163.84
2023-06-17T17:24:12.630Z,101167.78
2023-06-17T17:26:41.096Z,101163.31
2023-06-17T17:29:09.261Z,101165.03
2023-06-17T17:31:37.411Z,101163.16
2023-06-17T17:34:05.530Z,101155.09
2023-06-17T17:36:33.682Z,101162.94
2023-06-17T17:39:01.951Z,101159.63
2023-06-17T17:41:31.607Z,101158.06
2023-06-17T17:43:59.797Z,101158.53
2023-06-17T17:46:28.297Z,101166.41
2023-06-17T17:48:56.470Z,101168.09
2023-06-17T17:51:24.944Z,101165.97
2023-06-17T17:53:53.091Z,101173.84
2023-06-17T17:56:21.259Z,101163.47
2023-06-17T17:58:51.645Z,101162.25
2023-06-17T18:01:19.796Z,101159.97
2023-06-17T18:03:48.745Z,101163.03
2023-06-17T18:06:17.003Z,101166.09
2023-06-17T18:08:45.156Z,101159.91
2023-06-17T18:11:13.431Z,101175.34
2023-06-17T18:13:41.520Z,101174.50
2023-06-17T18:16:11.100Z,101162.66
2023-06-17T18:18:39.287Z,101171.59
2023-06-17T18:21:07.437Z,101171.41
2023-06-17T18:23:35.695Z,101169.53
2023-06-17T18:26:03.966Z,101171.09
2023-06-17T18:28:32.077Z,101184.66
2023-06-17T18:31:00.234Z,101184.03
2023-06-17T18:33:29.790Z,101181.81
2023-06-17T18:35:58.045Z,101178.06
2023-06-17T18:38:26.464Z,101176.34
2023-06-17T18:40:54.632Z,101175.63
2023-06-17T18:43:22.983Z,101174.09
2023-06-17T18:45:51.133Z,101173.50
2023-06-17T18:48:19.268Z,101167.66
2023-06-17T18:50:49.337Z,101174.50
2023-06-17T18:53:17.599Z,101172.06
2023-06-17T18:55:45.737Z,101171.66
2023-06-17T18:58:13.943Z,101179.50
2023-06-17T19:00:42.517Z,101176.34
2023-06-17T19:03:10.863Z,101181.31
2023-06-17T19:05:40.814Z,101181.47
2023-06-17T19:08:10.460Z,101182.03
2023-06-17T19:10:38.900Z,101186.97
2023-06-17T19:13:07.099Z,101192.78
2023-06-17T19:15:36.381Z,101184.03
2023-06-17T19:18:04.872Z,101185.16
2023-06-17T19:20:33.138Z,101187.38
2023-06-17T19:23:01.903Z,101188.00
2023-06-17T19:25:31.421Z,101182.09
2023-06-17T19:27:59.908Z,101187.34
2023-06-17T19:30:28.059Z,101190.53
2023-06-17T19:32:56.260Z,101187.41
2023-06-17T19:35:24.445Z,101184.38
2023-06-17T19:37:52.575Z,101188.63
2023-06-17T19:40:21.169Z,101192.84
2023-06-17T19:42:50.922Z,101193.28
2023-06-17T19:45:19.033Z,101193.91
2023-06-17T19:47:47.309Z,101187.13
2023-06-17T19:50:15.876Z,101197.81
2023-06-17T19:52:44.064Z,101199.56
2023-06-17T19:55:13.991Z,101198.44
2023-06-17T19:57:42.974Z,101199.19
2023-06-17T20:00:14.280Z,101209.13
2023-06-17T20:02:42.519Z,101195.47
2023-06-17T20:05:12.446Z,101199.09
2023-06-17T20:07:40.995Z,101202.69
2023-06-17T20:10:10.170Z,101203.72
2023-06-17T20:12:38.293Z,101200.97
2023-06-17T20:15:07.586Z,101205.28
2023-06-17T20:17:37.202Z,101210.59
2023-06-17T20:20:06.173Z,101212.19
2023-06-17T20:22:34.338Z,101202.09
2023-06-17T20:25:02.458Z,101204.69
2023-06-17T20:27:30.639Z,101203.38
2023-06-17T20:29:58.787Z,101203.81
2023-06-17T20:32:27.103Z,101202.34
2023-06-17T20:34:59.633Z,101201.06
2023-06-17T20:37:27.799Z,101195.28
2023-06-17T20:39:56.010Z,101201.34
2023-06-17T20:42:24.141Z,101196.41
2023-06-17T20:44:52.404Z,101206.91
2023-06-17T20:47:20.670Z,101210.16
2023-06-17T20:49:49.617Z,101207.97
2023-06-17T20:52:19.152Z,101208.50
2023-06-17T20:54:47.292Z,101206.22
2023-06-17T20:57:15.740Z,101213.09
2023-06-17T20:59:44.343Z,101206.16
2023-06-17T21:02:15.132Z,101204.84
2023-06-17T21:04:44.157Z,101204.28
2023-06-17T21:07:12.390Z,101213.84
2023-06-17T21:09:42.350Z,101215.41
2023-06-17T21:12:11.514Z,101206.75
2023-06-17T21:14:42.618Z,101212.63
2023-06-17T21:17:10.729Z,101209.41
2023-06-17T21:19:38.834Z,101203.38
2023-06-17T21:22:07.064Z,101204.66
2023-06-17T21:24:35.334Z,101204.06
2023-06-17T21:27:10.186Z,101204.44
2023-06-17T21:29:38.489Z,101219.34
2023-06-17T21:32:07.622Z,101214.41
2023-06-17T21:34:35.845Z,101212.09
2023-06-17T21:37:04.101Z,101218.06
2023-06-17T21:39:32.249Z,101217.56
2023-06-17T21:42:00.487Z,101219.69
2023-06-17T21:44:31.191Z,101219.34
2023-06-17T21:47:00.729Z,101219.63
2023-06-17T21:49:28.846Z,101219.16
2023-06-17T21:51:57.479Z,101215.94
2023-06-17T21:54:25.586Z,101223.38
2023-06-17T21:56:53.747Z,101223.66
2023-06-17T21:59:21.945Z,101221.31
2023-06-17T22:01:51.483Z,101226.00
2023-06-17T22:04:19.645Z,101219.84
2023-06-17T22:06:47.783Z,101217.25
2023-06-17T22:09:15.981Z,101216.50
2023-06-17T22:11:44.166Z,101209.59
2023-06-17T22:14:12.499Z,101212.56
2023-06-17T22:16:42.308Z,101215.41
2023-06-17T22:19:11.941Z,101221.13
2023-06-17T22:21:40.074Z,101208.03
2023-06-17T22:24:10.085Z,101213.72
2023-06-17T22:26:38.283Z,101209.53
2023-06-17T22:29:06.423Z,101217.94
2023-06-17T22:31:34.685Z,101219.94
2023-06-17T22:34:02.816Z,101210.16
2023-06-17T22:36:32.312Z,101207.56
2023-06-17T22:39:00.547Z,101204.09
2023-06-17T22:41:28.736Z,101209.66
2023-06-17T22:43:56.900Z,101212.66
2023-06-17T22:46:26.405Z,101208.69
2023-06-17T22:48:54.642Z,101204.50
2023-06-17T22:51:24.509Z,101203.88
2023-06-17T22:53:54.011Z,101200.63
2023-06-17T22:56:22.298Z,101205.47
2023-06-17T22:58:50.576Z,101206.59
2023-06-17T23:01:18.785Z,101214.97
2023-06-17T23:03:46.977Z,101217.09
2023-06-17T23:06:15.129Z,101211.91
2023-06-17T23:08:43.284Z,101207.59
2023-06-17T23:11:12.883Z,101210.44
2023-06-17T23:13:41.238Z,101209.66
2023-06-17T23:16:09.602Z,101208.94
2023-06-17T23:18:37.889Z,101200.28
2023-06-17T23:21:06.014Z,101206.84
2023-06-17T23:23:34.142Z,101202.53
2023-06-17T23:26:03.445Z,101209.19
2023-06-17T23:28:34.113Z,101201.28
2023-06-17T23:31:03.105Z,101207.56
2023-06-17T23:33:31.252Z,101206.72
2023-06-17T23:35:59.352Z,101206.47
2023-06-17T23:38:29.150Z,101195.56
2023-06-17T23:40:57.327Z,101205.59
2023-06-17T23:43:25.456Z,101202.38
2023-06-17T23:45:56.746Z,101196.31
2023-06-17T23:48:25.700Z,101199.41
2023-06-17T23:50:53.904Z,101203.09
2023-06-17T23:53:22.055Z,101192.47
2023-06-17T23:55:50.167Z,101196.41
2023-06-17T23:58:18.414Z,101197.66
